createdAt,value
2019-04-27T00:00:18.004Z,100623.25
2019-04-27T00:03:06.007Z,100618.95
2019-04-27T00:05:44.137Z,100603.14
2019-04-27T00:08:35.084Z,100589.39
2019-04-27T00:11:17.747Z,100587.14
2019-04-27T00:13:46.314Z,100584.72
2019-04-27T00:16:28.745Z,100584.37
2019-04-27T00:19:09.485Z,100589.59
2019-04-27T00:21:39.714Z,100584.66
2019-04-27T00:24:08.279Z,100581.27
2019-04-27T00:26:36.805Z,100593.88
2019-04-27T00:29:05.601Z,100599.44
2019-04-27T00:31:34.170Z,100592.13
2019-04-27T00:34:03.627Z,100584.73
2019-04-27T00:36:36.804Z,100581.18
2019-04-27T00:39:20.773Z,100580.42
2019-04-27T00:41:49.395Z,100586.45
2019-04-27T00:44:17.988Z,100583.45
2019-04-27T00:46:46.525Z,100583.08
2019-04-27T00:49:15.108Z,100596.98
2019-04-27T00:51:43.585Z,100600.17
2019-04-27T00:54:13.609Z,100595.99
2019-04-27T00:56:55.740Z,100596.11
2019-04-27T00:59:33.018Z,100603.02
2019-04-27T01:02:13.471Z,100609.04
2019-04-27T01:04:42.870Z,100626.06
2019-04-27T01:07:14.082Z,100625.98
2019-04-27T01:09:42.931Z,100616.05
2019-04-27T01:12:11.537Z,100622.17
2019-04-27T01:14:40.067Z,100611.81
2019-04-27T01:17:08.925Z,100621.31
2019-04-27T01:19:39.149Z,100628.55
2019-04-27T01:22:08.745Z,100633.13
2019-04-27T01:24:39.066Z,100637.70
2019-04-27T01:27:19.018Z,100650.84
2019-04-27T01:29:49.954Z,100649.63
2019-04-27T01:32:18.614Z,100646.78
2019-04-27T01:34:49.372Z,100647.06
2019-04-27T01:37:19.566Z,100650.09
2019-04-27T01:39:50.281Z,100651.16
2019-04-27T01:42:19.279Z,100659.39
2019-04-27T01:44:50.870Z,100655.45
2019-04-27T01:47:18.755Z,100661.00
2019-04-27T01:49:49.417Z,100660.28
2019-04-27T01:52:19.333Z,100664.32
2019-04-27T01:54:49.559Z,100669.50
2019-04-27T01:57:19.416Z,100673.16
2019-04-27T01:59:48.937Z,100677.09
2019-04-27T02:02:19.197Z,100677.73
2019-04-27T02:05:04.725Z,100683.80
2019-04-27T02:07:33.657Z,100683.94
2019-04-27T02:10:02.105Z,100691.81
2019-04-27T02:12:31.490Z,100688.27
2019-04-27T02:15:00.158Z,100686.81
2019-04-27T02:17:28.905Z,100689.98
2019-04-27T02:19:59.418Z,100688.04
2019-04-27T02:22:29.694Z,100685.81
2019-04-27T02:24:59.196Z,100677.78
2019-04-27T02:27:29.533Z,100679.20
2019-04-27T02:30:11.442Z,100668.45
2019-04-27T02:32:40.316Z,100670.10
2019-04-27T02:35:10.706Z,100663.37
2019-04-27T02:37:40.308Z,100658.86
2019-04-27T02:40:42.395Z,100648.78
2019-04-27T02:43:10.307Z,100642.06
2019-04-27T02:45:40.336Z,100646.31
2019-04-27T02:48:09.928Z,100651.53
2019-04-27T02:50:39.993Z,100648.35
2019-04-27T02:53:11.051Z,100652.53
2019-04-27T02:55:39.840Z,100654.81
2019-04-27T02:58:09.965Z,100659.77
2019-04-27T03:00:39.981Z,100672.16
2019-04-27T03:03:10.561Z,100673.89
2019-04-27T03:05:39.916Z,100681.47
2019-04-27T03:08:10.150Z,100674.48
2019-04-27T03:10:40.099Z,100678.08
2019-04-27T03:13:14.330Z,100684.08
2019-04-27T03:15:49.618Z,100681.33
2019-04-27T03:18:32.743Z,100675.33
2019-04-27T03:21:02.837Z,100688.67
2019-04-27T03:23:31.335Z,100688.98
2019-04-27T03:26:07.212Z,100693.00
2019-04-27T03:28:35.795Z,100695.75
2019-04-27T03:31:04.540Z,100698.36
2019-04-27T03:33:33.254Z,100710.06
2019-04-27T03:36:03.093Z,100705.69
2019-04-27T03:38:31.687Z,100713.31
2019-04-27T03:41:00.679Z,100702.76
2019-04-27T03:43:30.276Z,100703.89
2019-04-27T03:46:00.512Z,100699.64
2019-04-27T03:48:29.625Z,100699.58
2019-04-27T03:51:09.936Z,100699.91
2019-04-27T03:53:43.313Z,100692.92
2019-04-27T03:56:22.556Z,100692.85
2019-04-27T03:58:55.629Z,100693.75
2019-04-27T04:01:24.128Z,100691.83
2019-04-27T04:03:52.592Z,100690.46
2019-04-27T04:06:21.189Z,100693.48
2019-04-27T04:08:52.943Z,100685.68
2019-04-27T04:11:32.373Z,100689.36
2019-04-27T04:14:02.526Z,100687.30
2019-04-27T04:16:32.621Z,100694.45
2019-04-27T04:21:46.451Z,100691.61
2019-04-27T04:24:14.982Z,100693.08
2019-04-27T04:26:43.428Z,100700.20
2019-04-27T04:29:12.073Z,100705.56
2019-04-27T04:31:40.815Z,100697.41
2019-04-27T04:34:11.955Z,100690.46
2019-04-27T04:36:42.406Z,100689.93
2019-04-27T04:39:12.325Z,100690.27
2019-04-27T04:41:43.679Z,100688.48
2019-04-27T04:44:31.716Z,100681.97
2019-04-27T04:47:10.176Z,100698.28
2019-04-27T04:49:39.784Z,100707.82
2019-04-27T04:52:09.652Z,100718.17
2019-04-27T04:54:40.710Z,100713.05
2019-04-27T04:57:09.302Z,100706.23
2019-04-27T04:59:39.031Z,100708.50
2019-04-27T05:02:10.345Z,100699.02
2019-04-27T05:04:39.072Z,100695.41
2019-04-27T05:07:09.036Z,100704.52
2019-04-27T05:09:39.486Z,100705.80
2019-04-27T05:12:08.885Z,100710.59
2019-04-27T05:14:38.919Z,100710.54
2019-04-27T05:17:09.333Z,100709.17
2019-04-27T05:19:38.960Z,100709.97
2019-04-27T05:22:09.223Z,100713.00
2019-04-27T05:24:39.337Z,100711.02
2019-04-27T05:27:09.233Z,100703.11
2019-04-27T05:29:38.956Z,100708.67
2019-04-27T05:32:09.098Z,100710.84
2019-04-27T05:34:39.440Z,100713.00
2019-04-27T05:37:08.957Z,100722.41
2019-04-27T05:39:38.925Z,100717.00
2019-04-27T05:42:12.538Z,100718.47
2019-04-27T05:44:59.744Z,100710.79
2019-04-27T05:47:48.457Z,100713.70
2019-04-27T05:50:20.110Z,100717.26
2019-04-27T05:52:45.434Z,100718.45
2019-04-27T05:55:13.955Z,100722.48
2019-04-27T05:57:42.399Z,100720.42
2019-04-27T06:00:12.785Z,100719.23
2019-04-27T06:02:41.231Z,100716.61
2019-04-27T06:05:10.063Z,100718.70
2019-04-27T06:07:39.598Z,100718.11
2019-04-27T06:10:09.572Z,100724.39
2019-04-27T06:12:39.602Z,100715.88
2019-04-27T06:15:09.742Z,100715.00
2019-04-27T06:17:38.798Z,100715.17
2019-04-27T06:20:09.075Z,100722.81
2019-04-27T06:22:39.011Z,100723.30
2019-04-27T06:25:11.321Z,100730.97
2019-04-27T06:27:39.676Z,100716.45
2019-04-27T06:30:09.401Z,100717.73
2019-04-27T06:32:39.530Z,100712.64
2019-04-27T06:35:09.144Z,100710.09
2019-04-27T06:37:38.995Z,100708.00
2019-04-27T06:40:09.659Z,100710.33
2019-04-27T06:42:39.588Z,100707.33
2019-04-27T06:45:09.902Z,100724.80
2019-04-27T06:47:39.640Z,100731.59
2019-04-27T06:50:08.964Z,100735.77
2019-04-27T06:52:39.033Z,100735.61
2019-04-27T06:55:09.374Z,100731.84
2019-04-27T06:57:39.100Z,100735.98
2019-04-27T07:00:09.274Z,100739.08
2019-04-27T07:02:39.229Z,100738.87
2019-04-27T07:05:08.998Z,100733.73
2019-04-27T07:07:39.530Z,100739.08
2019-04-27T07:10:08.708Z,100745.13
2019-04-27T07:12:40.706Z,100739.95
2019-04-27T07:15:08.917Z,100745.09
2019-04-27T07:17:38.887Z,100738.58
2019-04-27T07:20:09.059Z,100734.64
2019-04-27T07:22:39.558Z,100731.97
2019-04-27T07:25:09.041Z,100736.51
2019-04-27T07:27:39.542Z,100734.17
2019-04-27T07:30:11.795Z,100734.43
2019-04-27T07:32:39.082Z,100727.05
2019-04-27T07:35:09.673Z,100729.00
2019-04-27T07:37:39.325Z,100738.00
2019-04-27T07:40:09.060Z,100740.91
2019-04-27T07:42:41.396Z,100740.80
2019-04-27T07:45:11.797Z,100740.09
2019-04-27T07:47:41.905Z,100734.83
2019-04-27T07:50:10.430Z,100735.15
2019-04-27T07:52:40.516Z,100737.56
2019-04-27T07:55:09.296Z,100734.98
2019-04-27T07:57:37.790Z,100733.35
2019-04-27T08:00:08.904Z,100744.17
2019-04-27T08:02:38.996Z,100737.48
2019-04-27T08:05:09.311Z,100744.03
2019-04-27T08:07:42.085Z,100743.62
2019-04-27T08:10:12.809Z,100743.59
2019-04-27T08:12:41.323Z,100743.81
2019-04-27T08:15:09.931Z,100737.05
2019-04-27T08:17:42.499Z,100735.59
2019-04-27T08:20:09.511Z,100738.99
2019-04-27T08:22:38.887Z,100732.33
2019-04-27T08:25:09.256Z,100738.73
2019-04-27T08:27:42.105Z,100736.15
2019-04-27T08:30:21.136Z,100736.78
2019-04-27T08:32:53.630Z,100728.50
2019-04-27T08:35:22.181Z,100730.65
2019-04-27T08:37:50.674Z,100727.83
2019-04-27T08:40:19.760Z,100721.64
2019-04-27T08:42:51.323Z,100719.51
2019-04-27T08:45:21.673Z,100726.39
2019-04-27T08:47:50.156Z,100717.63
2019-04-27T08:50:19.173Z,100711.10
2019-04-27T08:52:49.897Z,100715.17
2019-04-27T08:55:19.571Z,100719.61
2019-04-27T08:57:48.942Z,100729.53
2019-04-27T09:00:19.500Z,100718.22
2019-04-27T09:02:50.026Z,100719.02
2019-04-27T09:05:21.224Z,100723.73
2019-04-27T09:08:00.373Z,100729.70
2019-04-27T09:10:39.363Z,100733.83
2019-04-27T09:13:19.472Z,100728.86
2019-04-27T09:15:53.347Z,100726.50
2019-04-27T09:18:23.813Z,100731.05
2019-04-27T09:20:53.918Z,100726.09
2019-04-27T09:23:22.468Z,100719.81
2019-04-27T09:25:50.909Z,100719.48
2019-04-27T09:28:21.708Z,100722.50
2019-04-27T09:30:49.962Z,100721.22
2019-04-27T09:33:18.611Z,100724.81
2019-04-27T09:35:47.090Z,100719.62
2019-04-27T09:38:16.737Z,100726.16
2019-04-27T09:40:46.607Z,100721.44
2019-04-27T09:43:15.780Z,100727.73
2019-04-27T09:45:44.977Z,100725.73
2019-04-27T09:48:13.586Z,100725.94
2019-04-27T09:50:42.104Z,100722.00
2019-04-27T09:53:10.644Z,100723.20
2019-04-27T09:55:39.203Z,100717.36
2019-04-27T09:58:08.012Z,100723.47
2019-04-27T10:00:36.884Z,100720.55
2019-04-27T10:03:06.572Z,100714.14
2019-04-27T10:05:36.688Z,100715.84
2019-04-27T10:08:06.311Z,100717.48
2019-04-27T10:10:36.965Z,100717.82
2019-04-27T10:13:06.971Z,100718.09
2019-04-27T10:15:35.725Z,100720.02
2019-04-27T10:18:06.061Z,100716.22
2019-04-27T10:20:38.720Z,100713.50
2019-04-27T10:23:06.218Z,100709.98
2019-04-27T10:25:35.494Z,100709.95
2019-04-27T10:28:06.743Z,100701.66
2019-04-27T10:30:35.912Z,100710.45
2019-04-27T10:33:05.975Z,100711.70
2019-04-27T10:35:36.298Z,100712.28
2019-04-27T10:38:10.760Z,100712.27
2019-04-27T10:40:46.091Z,100714.73
2019-04-27T10:43:16.565Z,100714.81
2019-04-27T10:45:46.412Z,100710.04
2019-04-27T10:48:16.327Z,100707.61
2019-04-27T10:50:46.694Z,100714.13
2019-04-27T10:53:16.904Z,100709.75
2019-04-27T10:55:46.424Z,100706.64
2019-04-27T10:58:15.806Z,100702.81
2019-04-27T11:00:45.989Z,100705.00
2019-04-27T11:03:16.688Z,100704.03
2019-04-27T11:05:47.015Z,100701.14
2019-04-27T11:08:16.692Z,100704.59
2019-04-27T11:10:46.172Z,100702.63
2019-04-27T11:13:16.486Z,100701.53
2019-04-27T11:15:46.097Z,100694.66
2019-04-27T11:18:16.700Z,100690.91
2019-04-27T11:20:46.832Z,100693.92
2019-04-27T11:23:16.402Z,100688.94
2019-04-27T11:25:46.825Z,100693.66
2019-04-27T11:28:15.775Z,100680.11
2019-04-27T11:30:44.459Z,100680.23
2019-04-27T11:33:12.972Z,100683.08
2019-04-27T11:35:43.642Z,100680.19
2019-04-27T11:38:12.264Z,100676.06
2019-04-27T11:40:40.775Z,100667.85
2019-04-27T11:43:09.340Z,100674.73
2019-04-27T11:45:37.939Z,100662.68
2019-04-27T11:48:06.448Z,100663.05
2019-04-27T11:50:35.933Z,100660.17
2019-04-27T11:53:06.047Z,100670.61
2019-04-27T11:55:34.775Z,100667.92
2019-04-27T11:58:03.345Z,100660.40
2019-04-27T12:00:32.292Z,100663.58
2019-04-27T12:03:00.850Z,100662.89
2019-04-27T12:05:29.661Z,100660.42
2019-04-27T12:07:58.241Z,100656.68
2019-04-27T12:10:26.864Z,100657.02
2019-04-27T12:12:56.313Z,100647.19
2019-04-27T12:15:26.281Z,100661.50
2019-04-27T12:17:56.158Z,100653.20
2019-04-27T12:20:25.794Z,100650.19
2019-04-27T12:22:54.998Z,100644.84
2019-04-27T12:25:23.616Z,100653.81
2019-04-27T12:27:56.950Z,100647.14
2019-04-27T12:30:29.678Z,100647.15
2019-04-27T12:32:58.280Z,100640.48
2019-04-27T12:35:26.824Z,100640.06
2019-04-27T12:37:56.039Z,100642.80
2019-04-27T12:40:26.696Z,100642.21
2019-04-27T12:42:55.121Z,100635.05
2019-04-27T12:45:23.652Z,100627.28
2019-04-27T12:47:52.117Z,100629.38
2019-04-27T12:50:21.098Z,100629.95
2019-04-27T12:53:00.188Z,100627.77
2019-04-27T12:55:39.211Z,100630.53
2019-04-27T12:58:18.509Z,100632.39
2019-04-27T13:00:51.397Z,100623.00
2019-04-27T13:03:19.885Z,100622.19
2019-04-27T13:05:48.809Z,100617.56
2019-04-27T13:08:17.487Z,100615.36
2019-04-27T13:10:45.996Z,100613.36
2019-04-27T13:13:16.302Z,100616.39
2019-04-27T13:15:46.107Z,100611.43
2019-04-27T13:18:16.707Z,100610.30
2019-04-27T13:20:45.386Z,100610.16
2019-04-27T13:23:13.879Z,100604.73
2019-04-27T13:25:43.099Z,100606.59
2019-04-27T13:28:12.370Z,100605.30
2019-04-27T13:30:40.834Z,100603.08
2019-04-27T13:33:09.389Z,100599.43
2019-04-27T13:35:37.958Z,100597.16
2019-04-27T13:38:06.430Z,100597.92
2019-04-27T13:40:37.340Z,100594.09
2019-04-27T13:43:08.272Z,100587.94
2019-04-27T13:45:38.419Z,100589.11
2019-04-27T13:48:11.275Z,100584.43
2019-04-27T13:50:47.184Z,100582.41
2019-04-27T13:53:16.759Z,100586.91
2019-04-27T13:55:46.719Z,100576.63
2019-04-27T13:58:15.927Z,100578.58
2019-04-27T14:00:44.434Z,100578.47
2019-04-27T14:03:14.653Z,100587.52
2019-04-27T14:05:43.204Z,100581.12
2019-04-27T14:08:11.703Z,100585.66
2019-04-27T14:10:40.158Z,100579.08
2019-04-27T14:13:11.007Z,100570.13
2019-04-27T14:15:39.073Z,100570.59
2019-04-27T14:18:08.411Z,100570.22
2019-04-27T14:20:38.975Z,100577.75
2019-04-27T14:23:15.557Z,100566.84
2019-04-27T14:25:44.039Z,100568.75
2019-04-27T14:28:12.472Z,100574.65
2019-04-27T14:30:41.027Z,100561.49
2019-04-27T14:33:09.476Z,100562.33
2019-04-27T14:35:38.023Z,100551.90
2019-04-27T14:38:06.460Z,100553.84
2019-04-27T14:40:34.979Z,100554.16
2019-04-27T14:43:03.420Z,100553.50
2019-04-27T14:45:31.948Z,100556.27
2019-04-27T14:48:00.415Z,100558.35
2019-04-27T14:50:28.948Z,100561.55
2019-04-27T14:52:59.060Z,100564.61
2019-04-27T14:55:28.253Z,100563.75
2019-04-27T14:57:58.672Z,100569.31
2019-04-27T15:00:28.778Z,100572.97
2019-04-27T15:02:59.154Z,100562.39
2019-04-27T15:05:27.957Z,100562.89
2019-04-27T15:07:56.483Z,100558.67
2019-04-27T15:10:27.115Z,100553.11
2019-04-27T15:12:55.534Z,100548.52
2019-04-27T15:15:24.475Z,100556.61
2019-04-27T15:17:52.923Z,100547.91
2019-04-27T15:20:36.062Z,100543.62
2019-04-27T15:23:05.612Z,100542.07
2019-04-27T15:25:42.346Z,100544.77
2019-04-27T15:28:07.464Z,100530.30
2019-04-27T15:30:42.592Z,100533.28
2019-04-27T15:33:29.181Z,100532.58
2019-04-27T15:36:10.272Z,100531.88
2019-04-27T15:38:50.147Z,100531.86
2019-04-27T15:41:33.790Z,100534.54
2019-04-27T15:44:05.936Z,100534.07
2019-04-27T15:46:33.807Z,100527.98
2019-04-27T15:49:09.759Z,100530.28
2019-04-27T15:51:33.825Z,100524.58
2019-04-27T15:54:02.397Z,100525.48
2019-04-27T15:56:35.336Z,100527.93
2019-04-27T15:59:01.307Z,100526.22
2019-04-27T16:01:35.836Z,100528.72
2019-04-27T16:04:02.497Z,100527.09
2019-04-27T16:06:30.625Z,100533.11
2019-04-27T16:08:59.174Z,100538.05
2019-04-27T16:11:27.613Z,100526.69
2019-04-27T16:13:56.347Z,100524.73
2019-04-27T16:16:29.222Z,100518.78
2019-04-27T16:18:55.172Z,100525.91
2019-04-27T16:21:23.689Z,100528.27
2019-04-27T16:23:52.278Z,100531.97
2019-04-27T16:26:20.810Z,100532.17
2019-04-27T16:28:53.019Z,100535.19
2019-04-27T16:31:20.458Z,100538.92
2019-04-27T16:33:49.686Z,100531.45
2019-04-27T16:36:19.766Z,100534.99
2019-04-27T16:38:50.177Z,100531.52
2019-04-27T16:41:18.808Z,100528.44
2019-04-27T16:43:48.990Z,100530.12
2019-04-27T16:46:19.059Z,100534.53
2019-04-27T16:48:48.034Z,100537.05
2019-04-27T16:51:18.191Z,100536.03
2019-04-27T16:53:46.920Z,100539.83
2019-04-27T16:56:18.124Z,100543.44
2019-04-27T16:58:51.111Z,100539.83
2019-04-27T17:01:20.280Z,100543.30
2019-04-27T17:03:48.914Z,100542.61
2019-04-27T17:06:19.099Z,100545.34
2019-04-27T17:08:49.574Z,100534.08
2019-04-27T17:11:19.651Z,100528.18
2019-04-27T17:13:55.948Z,100531.41
2019-04-27T17:16:31.240Z,100528.20
2019-04-27T17:19:04.727Z,100533.46
2019-04-27T17:21:28.801Z,100527.78
2019-04-27T17:24:02.853Z,100526.06
2019-04-27T17:26:29.230Z,100528.80
2019-04-27T17:29:11.005Z,100531.72
2019-04-27T17:31:38.169Z,100527.81
2019-04-27T17:34:08.159Z,100536.13
2019-04-27T17:36:38.514Z,100536.30
2019-04-27T17:39:09.190Z,100531.00
2019-04-27T17:41:42.169Z,100534.13
2019-04-27T17:44:08.662Z,100529.31
2019-04-27T17:46:38.538Z,100527.50
2019-04-27T17:49:08.462Z,100519.61
2019-04-27T17:51:42.961Z,100519.88
2019-04-27T17:54:11.131Z,100521.44
2019-04-27T17:56:48.455Z,100525.52
2019-04-27T17:59:10.374Z,100524.10
2019-04-27T18:01:38.891Z,100525.11
2019-04-27T18:04:10.369Z,100526.09
2019-04-27T18:06:39.077Z,100517.10
2019-04-27T18:09:09.971Z,100519.01
2019-04-27T18:11:38.594Z,100516.82
2019-04-27T18:14:11.149Z,100520.48
2019-04-27T18:16:38.088Z,100526.14
2019-04-27T18:19:25.808Z,100527.15
2019-04-27T18:22:01.001Z,100528.31
2019-04-27T18:24:33.729Z,100526.52
2019-04-27T18:27:09.851Z,100527.94
2019-04-27T18:29:38.769Z,100536.03
2019-04-27T18:32:08.878Z,100538.80
2019-04-27T18:34:38.918Z,100540.58
2019-04-27T18:37:07.530Z,100547.24
2019-04-27T18:39:36.020Z,100546.39
2019-04-27T18:42:04.744Z,100553.47
2019-04-27T18:44:33.319Z,100583.04
2019-04-27T18:47:02.485Z,100580.53
2019-04-27T18:49:32.899Z,100582.27
2019-04-27T18:52:06.531Z,100586.48
2019-04-27T18:54:38.222Z,100592.83
2019-04-27T18:57:06.160Z,100597.03
2019-04-27T18:59:34.681Z,100604.28
2019-04-27T19:02:03.186Z,100599.80
2019-04-27T19:04:31.810Z,100609.38
2019-04-27T19:07:00.694Z,100601.25
2019-04-27T19:09:33.522Z,100609.34
2019-04-27T19:12:04.334Z,100613.72
2019-04-27T19:14:32.902Z,100615.27
2019-04-27T19:17:02.390Z,100615.88
2019-04-27T19:19:30.856Z,100612.34
2019-04-27T19:21:59.846Z,100617.05
2019-04-27T19:24:29.113Z,100615.46
2019-04-27T19:27:15.413Z,100624.05
2019-04-27T19:29:38.176Z,100625.29
2019-04-27T19:32:08.141Z,100620.98
2019-04-27T19:34:38.787Z,100622.90
2019-04-27T19:37:08.191Z,100624.09
2019-04-27T19:39:39.302Z,100631.52
2019-04-27T19:42:07.636Z,100633.16
2019-04-27T19:44:36.199Z,100637.54
2019-04-27T19:47:05.897Z,100633.36
2019-04-27T19:49:35.049Z,100630.70
2019-04-27T19:52:03.556Z,100640.00
2019-04-27T19:54:32.104Z,100643.91
2019-04-27T19:57:00.580Z,100651.45
2019-04-27T19:59:30.720Z,100644.51
2019-04-27T20:02:00.817Z,100652.39
2019-04-27T20:04:31.415Z,100649.89
2019-04-27T20:06:59.948Z,100657.70
2019-04-27T20:09:32.099Z,100657.10
2019-04-27T20:12:00.862Z,100654.66
2019-04-27T20:14:33.233Z,100654.53
2019-04-27T20:17:01.713Z,100655.94
2019-04-27T20:19:31.483Z,100662.45
2019-04-27T20:22:00.847Z,100657.88
2019-04-27T20:24:31.402Z,100665.66
2019-04-27T20:27:00.673Z,100668.77
2019-04-27T20:29:31.714Z,100664.19
2019-04-27T20:32:01.189Z,100668.47
2019-04-27T20:34:31.077Z,100672.67
2019-04-27T20:37:01.290Z,100671.16
2019-04-27T20:39:30.153Z,100675.25
2019-04-27T20:41:58.576Z,100677.38
2019-04-27T20:44:27.092Z,100679.72
2019-04-27T20:46:55.610Z,100670.40
2019-04-27T20:49:24.131Z,100670.40
2019-04-27T20:52:10.984Z,100668.45
2019-04-27T20:54:41.379Z,100673.71
2019-04-27T20:57:11.497Z,100665.88
2019-04-27T20:59:40.207Z,100661.44
2019-04-27T21:02:27.220Z,100671.92
2019-04-27T21:04:57.411Z,100670.96
2019-04-27T21:07:42.305Z,100681.96
2019-04-27T21:10:11.070Z,100686.31
2019-04-27T21:12:41.186Z,100682.28
2019-04-27T21:15:12.735Z,100691.02
2019-04-27T21:17:40.698Z,100689.45
2019-04-27T21:20:11.805Z,100684.92
2019-04-27T21:22:41.755Z,100687.95
2019-04-27T21:25:11.860Z,100691.21
2019-04-27T21:27:41.050Z,100686.67
2019-04-27T21:30:11.393Z,100688.33
2019-04-27T21:32:40.090Z,100681.88
2019-04-27T21:35:10.846Z,100683.25
2019-04-27T21:37:40.915Z,100687.72
2019-04-27T21:40:18.135Z,100690.33
2019-04-27T21:42:47.168Z,100690.86
2019-04-27T21:45:16.648Z,100697.94
2019-04-27T21:47:45.552Z,100698.82
2019-04-27T21:50:14.533Z,100701.70
2019-04-27T21:52:53.643Z,100705.13
2019-04-27T21:55:23.969Z,100704.68
2019-04-27T21:57:52.434Z,100711.45
2019-04-27T22:00:28.673Z,100709.23
2019-04-27T22:02:57.521Z,100713.56
2019-04-27T22:05:25.968Z,100713.50
2019-04-27T22:07:54.656Z,100716.47
2019-04-27T22:10:23.199Z,100716.53
2019-04-27T22:12:51.874Z,100717.33
2019-04-27T22:15:21.219Z,100721.23
2019-04-27T22:17:49.838Z,100722.63
2019-04-27T22:20:18.425Z,100716.35
2019-04-27T22:23:01.727Z,100719.03
2019-04-27T22:25:35.833Z,100713.22
2019-04-27T22:28:04.600Z,100719.86
2019-04-27T22:30:33.059Z,100726.11
2019-04-27T22:33:01.772Z,100725.64
2019-04-27T22:35:31.248Z,100726.89
2019-04-27T22:38:01.847Z,100729.88
2019-04-27T22:40:48.054Z,100723.17
2019-04-27T22:43:26.815Z,100727.63
2019-04-27T22:45:55.947Z,100727.09
2019-04-27T22:48:24.434Z,100729.27
2019-04-27T22:50:52.900Z,100729.77
2019-04-27T22:53:21.427Z,100722.36
2019-04-27T22:56:07.696Z,100718.97
2019-04-27T22:58:37.834Z,100722.63
2019-04-27T23:01:16.995Z,100730.74
2019-04-27T23:03:51.574Z,100720.03
2019-04-27T23:06:21.627Z,100721.67
2019-04-27T23:08:51.567Z,100724.09
2019-04-27T23:11:21.088Z,100717.47
2019-04-27T23:13:50.595Z,100711.73
2019-04-27T23:16:21.930Z,100717.83
2019-04-27T23:18:51.548Z,100710.75
2019-04-27T23:21:20.930Z,100714.94
2019-04-27T23:23:51.598Z,100717.48
2019-04-27T23:26:21.150Z,100718.59
2019-04-27T23:28:51.420Z,100722.41
2019-04-27T23:31:31.902Z,100719.88
2019-04-27T23:34:01.872Z,100726.74
2019-04-27T23:36:31.676Z,100722.50
2019-04-27T23:39:00.882Z,100726.69
2019-04-27T23:41:29.662Z,100722.91
2019-04-27T23:43:58.168Z,100715.14
2019-04-27T23:46:26.634Z,100725.39
2019-04-27T23:48:55.203Z,100720.30
2019-04-27T23:51:34.268Z,100718.37
2019-04-27T23:54:02.796Z,100714.11
2019-04-27T23:56:31.821Z,100719.66
2019-04-27T23:59:00.544Z,100718.31
